createdAt,value
2023-01-10T00:02:26.614Z,99.99
2023-01-10T00:04:57.189Z,99.99
2023-01-10T00:07:25.493Z,99.99
2023-01-10T00:09:54.084Z,99.99
2023-01-10T00:12:40.562Z,99.99
2023-01-10T00:15:09.962Z,99.99
2023-01-10T00:17:38.648Z,99.99
2023-01-10T00:20:10.113Z,99.99
2023-01-10T00:22:41.185Z,99.99
2023-01-10T00:25:09.729Z,99.99
2023-01-10T00:27:39.520Z,99.99
2023-01-10T00:30:14.114Z,99.99
2023-01-10T00:32:43.560Z,99.99
2023-01-10T00:35:14.621Z,99.99
2023-01-10T00:37:43.229Z,99.99
2023-01-10T00:40:13.142Z,99.99
2023-01-10T00:42:59.001Z,99.99
2023-01-10T00:45:28.836Z,99.99
2023-01-10T00:47:57.621Z,99.99
2023-01-10T00:50:28.841Z,99.99
2023-01-10T00:52:57.153Z,99.99
2023-01-10T00:55:26.008Z,99.99
2023-01-10T00:57:54.609Z,99.99
2023-01-10T01:00:23.009Z,99.99
2023-01-10T01:02:52.622Z,99.99
2023-01-10T01:05:21.252Z,99.99
2023-01-10T01:07:55.807Z,99.99
2023-01-10T01:10:30.273Z,99.99
2023-01-10T01:13:00.860Z,99.99
2023-01-10T01:15:29.634Z,99.99
2023-01-10T01:18:01.321Z,99.99
2023-01-10T01:20:30.583Z,99.99
2023-01-10T01:23:00.825Z,99.99
2023-01-10T01:25:30.737Z,99.99
2023-01-10T01:27:59.664Z,99.99
2023-01-10T01:30:28.372Z,99.99
2023-01-10T01:32:57.945Z,99.99
2023-01-10T01:35:26.621Z,99.99
2023-01-10T01:37:55.156Z,99.99
2023-01-10T01:40:26.282Z,99.99
2023-01-10T01:42:56.139Z,99.99
2023-01-10T01:45:40.651Z,99.99
2023-01-10T01:48:16.401Z,99.99
2023-01-10T01:50:50.412Z,99.99
2023-01-10T01:53:24.084Z,99.99
2023-01-10T01:55:57.256Z,99.99
2023-01-10T01:58:31.261Z,99.99
2023-01-10T02:01:00.591Z,99.99
2023-01-10T02:03:30.651Z,99.99
2023-01-10T02:05:59.225Z,99.99
2023-01-10T02:08:28.038Z,99.99
2023-01-10T02:11:06.007Z,99.99
2023-01-10T02:13:34.880Z,99.99
2023-01-10T02:16:06.060Z,99.99
2023-01-10T02:18:34.765Z,99.99
2023-01-10T02:21:34.339Z,99.99
2023-01-10T02:24:41.279Z,99.99
2023-01-10T02:27:29.159Z,99.99
2023-01-10T02:30:26.694Z,99.99
2023-01-10T02:33:05.389Z,99.99
2023-01-10T02:36:03.377Z,99.99
2023-01-10T02:38:42.134Z,99.99
2023-01-10T02:41:19.510Z,99.99
2023-01-10T02:43:52.800Z,99.99
2023-01-10T02:46:25.495Z,99.99
2023-01-10T02:48:57.400Z,99.99
2023-01-10T02:51:28.535Z,99.99
2023-01-10T02:54:02.466Z,99.99
2023-01-10T02:57:15.078Z,99.99
2023-01-10T03:00:14.209Z,99.99
2023-01-10T03:03:11.630Z,99.99
2023-01-10T03:06:01.986Z,99.99
2023-01-10T03:08:37.156Z,99.99
2023-01-10T03:11:09.333Z,99.99
2023-01-10T03:13:44.665Z,99.99
2023-01-10T03:16:21.930Z,99.99
2023-01-10T03:18:55.699Z,99.99
2023-01-10T03:21:27.970Z,99.99
2023-01-10T03:24:00.758Z,99.99
2023-01-10T03:26:42.424Z,99.99
2023-01-10T03:29:15.542Z,99.99
2023-01-10T03:31:50.435Z,99.99
2023-01-10T03:34:20.265Z,99.99
2023-01-10T03:36:58.188Z,99.99
2023-01-10T03:39:34.138Z,99.99
2023-01-10T03:42:10.725Z,99.99
2023-01-10T03:44:45.955Z,99.99
2023-01-10T03:47:21.248Z,99.99
2023-01-10T03:49:56.815Z,99.99
2023-01-10T03:52:27.950Z,99.99
2023-01-10T03:54:59.285Z,99.99
2023-01-10T03:57:30.915Z,99.99
2023-01-10T04:00:00.544Z,99.99
2023-01-10T04:02:30.691Z,99.99
2023-01-10T04:05:01.324Z,99.99
2023-01-10T04:07:31.499Z,99.99
2023-01-10T04:10:00.369Z,99.99
2023-01-10T04:12:29.024Z,99.99
2023-01-10T04:14:58.393Z,99.99
2023-01-10T04:17:29.601Z,99.99
2023-01-10T04:19:58.443Z,99.99
2023-01-10T04:22:28.204Z,99.99
2023-01-10T04:24:58.430Z,99.99
2023-01-10T04:27:27.033Z,99.99
2023-01-10T04:29:55.620Z,99.99
2023-01-10T04:32:24.246Z,99.99
2023-01-10T04:34:54.076Z,99.99
2023-01-10T04:37:22.481Z,99.99
2023-01-10T04:39:59.595Z,99.99
2023-01-10T04:42:30.044Z,99.99
2023-01-10T04:44:58.274Z,99.99
2023-01-10T04:47:28.635Z,99.99
2023-01-10T04:49:57.415Z,99.99
2023-01-10T04:52:28.231Z,99.99
2023-01-10T04:54:57.761Z,99.99
2023-01-10T04:57:26.626Z,99.99
2023-01-10T04:59:56.328Z,99.99
2023-01-10T05:02:25.310Z,99.99
2023-01-10T05:04:53.824Z,99.99
2023-01-10T05:07:22.209Z,99.99
2023-01-10T05:09:51.145Z,99.99
2023-01-10T05:12:19.822Z,99.99
2023-01-10T05:14:48.138Z,99.99
2023-01-10T05:17:18.431Z,99.99
2023-01-10T05:19:47.928Z,99.99
2023-01-10T05:22:16.132Z,99.99
2023-01-10T05:24:44.665Z,99.99
2023-01-10T05:27:14.720Z,99.99
2023-01-10T05:29:43.299Z,99.99
2023-01-10T05:32:12.823Z,99.99
2023-01-10T05:34:47.006Z,99.99
2023-01-10T05:37:17.900Z,99.99
2023-01-10T05:39:50.281Z,99.99
2023-01-10T05:42:18.880Z,99.99
2023-01-10T05:44:47.183Z,99.99
2023-01-10T05:47:20.349Z,99.99
2023-01-10T05:49:50.449Z,99.99
2023-01-10T05:52:20.179Z,99.99
2023-01-10T05:54:48.409Z,99.99
2023-01-10T05:57:16.917Z,99.99
2023-01-10T05:59:45.344Z,99.99
2023-01-10T06:02:14.667Z,99.99
2023-01-10T06:04:43.949Z,99.99
2023-01-10T06:07:14.093Z,99.99
2023-01-10T06:09:43.258Z,99.99
2023-01-10T06:12:11.825Z,99.99
2023-01-10T06:14:40.527Z,99.99
2023-01-10T06:17:10.627Z,99.99
2023-01-10T06:19:39.382Z,99.99
2023-01-10T06:22:07.579Z,99.99
2023-01-10T06:24:37.788Z,99.99
2023-01-10T06:27:10.781Z,99.99
2023-01-10T06:29:40.910Z,99.99
2023-01-10T06:32:09.649Z,99.99
2023-01-10T06:34:37.808Z,99.99
2023-01-10T06:37:06.182Z,99.99
2023-01-10T06:39:37.182Z,99.99
2023-01-10T06:42:05.751Z,99.99
2023-01-10T06:44:34.514Z,99.99
2023-01-10T06:47:03.477Z,99.99
2023-01-10T06:49:31.899Z,99.99
2023-01-10T06:52:00.686Z,99.99
2023-01-10T06:54:32.084Z,99.99
2023-01-10T06:57:06.376Z,99.99
2023-01-10T06:59:38.909Z,99.99
2023-01-10T07:02:08.378Z,99.99
2023-01-10T07:04:36.800Z,99.99
2023-01-10T07:07:05.331Z,99.99
2023-01-10T07:09:34.689Z,99.99
2023-01-10T07:12:04.486Z,99.99
2023-01-10T07:14:33.079Z,99.99
2023-01-10T07:17:06.274Z,99.99
2023-01-10T07:19:39.385Z,99.99
2023-01-10T07:22:08.034Z,99.99
2023-01-10T07:24:36.485Z,99.99
2023-01-10T07:27:06.109Z,99.99
2023-01-10T07:29:34.934Z,99.99
2023-01-10T07:32:03.504Z,99.99
2023-01-10T07:34:33.802Z,99.99
2023-01-10T07:37:03.646Z,99.99
2023-01-10T07:39:32.303Z,99.99
2023-01-10T07:42:01.345Z,99.99
2023-01-10T07:44:33.262Z,99.99
2023-01-10T07:47:01.814Z,99.99
2023-01-10T07:49:37.084Z,99.99
2023-01-10T07:52:08.982Z,99.99
2023-01-10T07:54:37.648Z,99.99
2023-01-10T07:57:06.262Z,99.99
2023-01-10T07:59:36.430Z,99.99
2023-01-10T08:02:05.680Z,99.99
2023-01-10T08:04:34.839Z,99.99
2023-01-10T08:07:03.117Z,99.99
2023-01-10T08:09:31.413Z,99.99
2023-01-10T08:12:01.090Z,99.99
2023-01-10T08:14:29.570Z,99.99
2023-01-10T08:16:59.200Z,99.99
2023-01-10T08:19:29.455Z,99.99
2023-01-10T08:21:58.757Z,99.99
2023-01-10T08:24:27.383Z,99.99
2023-01-10T08:26:55.846Z,99.99
2023-01-10T08:29:24.595Z,99.99
2023-01-10T08:31:52.940Z,99.99
2023-01-10T08:34:22.959Z,99.99
2023-01-10T08:36:52.095Z,99.99
2023-01-10T08:39:22.379Z,99.99
2023-01-10T08:41:51.012Z,99.99
2023-01-10T08:44:19.841Z,99.99
2023-01-10T08:46:49.627Z,99.99
2023-01-10T08:49:23.794Z,99.99
2023-01-10T08:51:53.919Z,99.99
2023-01-10T08:54:25.155Z,99.99
2023-01-10T08:56:55.403Z,99.99
2023-01-10T08:59:24.166Z,99.99
2023-01-10T09:01:52.804Z,99.99
2023-01-10T09:04:23.504Z,99.99
2023-01-10T09:06:54.302Z,99.99
2023-01-10T09:09:23.426Z,99.99
2023-01-10T09:11:55.160Z,99.99
2023-01-10T09:14:24.007Z,99.99
2023-01-10T09:16:55.220Z,99.99
2023-01-10T09:19:24.744Z,99.99
2023-01-10T09:21:55.711Z,99.99
2023-01-10T09:24:24.494Z,99.99
2023-01-10T09:26:52.929Z,99.99
2023-01-10T09:29:21.498Z,99.99
2023-01-10T09:31:51.988Z,99.99
2023-01-10T09:34:20.409Z,99.99
2023-01-10T09:36:49.172Z,99.99
2023-01-10T09:39:20.467Z,99.99
2023-01-10T09:42:12.057Z,99.99
2023-01-10T09:44:48.653Z,99.99
2023-01-10T09:47:26.099Z,99.99
2023-01-10T09:50:05.538Z,99.99
2023-01-10T09:52:40.481Z,99.99
2023-01-10T09:55:21.773Z,99.99
2023-01-10T09:57:52.765Z,99.99
2023-01-10T10:00:29.355Z,99.99
2023-01-10T10:02:57.963Z,99.99
2023-01-10T10:05:28.537Z,99.99
2023-01-10T10:08:03.607Z,99.99
2023-01-10T10:10:39.909Z,99.99
2023-01-10T10:13:27.621Z,99.99
2023-01-10T10:16:05.724Z,99.99
2023-01-10T10:18:44.269Z,99.97
2023-01-10T10:21:19.707Z,99.99
2023-01-10T10:24:07.021Z,99.99
2023-01-10T10:26:51.008Z,99.99
2023-01-10T10:29:33.421Z,99.99
2023-01-10T10:32:32.105Z,99.99
2023-01-10T10:35:05.383Z,99.99
2023-01-10T10:37:40.038Z,99.99
2023-01-10T10:40:17.794Z,99.99
2023-01-10T10:42:50.714Z,99.99
2023-01-10T10:45:25.569Z,99.97
2023-01-10T10:48:00.198Z,99.64
2023-01-10T10:50:33.737Z,99.99
2023-01-10T10:53:03.723Z,99.99
2023-01-10T10:55:35.908Z,99.99
2023-01-10T10:58:08.408Z,99.99
2023-01-10T11:00:37.720Z,99.99
2023-01-10T11:03:15.986Z,99.71
2023-01-10T11:05:50.566Z,99.99
2023-01-10T11:08:21.090Z,99.99
2023-01-10T11:10:52.286Z,99.99
2023-01-10T11:13:36.670Z,99.99
2023-01-10T11:16:08.003Z,99.99
2023-01-10T11:18:38.503Z,99.99
2023-01-10T11:21:13.044Z,99.99
2023-01-10T11:23:50.803Z,99.99
2023-01-10T11:26:27.812Z,99.99
2023-01-10T11:29:08.461Z,99.99
2023-01-10T11:31:38.972Z,99.99
2023-01-10T11:34:21.739Z,99.99
2023-01-10T11:37:00.489Z,99.99
2023-01-10T11:39:29.630Z,99.99
2023-01-10T11:42:00.294Z,99.99
2023-01-10T11:44:32.728Z,99.99
2023-01-10T11:47:05.526Z,99.99
2023-01-10T11:49:38.248Z,99.99
2023-01-10T11:52:17.273Z,99.99
2023-01-10T11:54:46.372Z,99.99
2023-01-10T11:57:19.921Z,99.99
2023-01-10T11:59:54.958Z,99.99
2023-01-10T12:02:34.013Z,99.99
2023-01-10T12:05:10.244Z,99.99
2023-01-10T12:07:57.143Z,99.95
2023-01-10T12:10:27.824Z,99.81
2023-01-10T12:12:58.412Z,99.53
2023-01-10T12:15:30.237Z,99.39
2023-01-10T12:18:00.788Z,99.84
2023-01-10T12:20:31.585Z,99.40
2023-01-10T12:23:04.907Z,99.32
2023-01-10T12:25:38.872Z,99.54
2023-01-10T12:28:18.802Z,99.27
2023-01-10T12:30:53.296Z,99.99
2023-01-10T12:33:27.522Z,99.54
2023-01-10T12:36:00.921Z,99.22
2023-01-10T12:38:52.603Z,99.44
2023-01-10T12:41:45.495Z,99.22
2023-01-10T12:44:20.186Z,98.57
2023-01-10T12:47:12.975Z,99.45
2023-01-10T12:49:47.041Z,98.70
2023-01-10T12:52:23.258Z,99.51
2023-01-10T12:54:52.159Z,99.23
2023-01-10T12:57:29.218Z,99.15
2023-01-10T13:00:00.414Z,99.51
2023-01-10T13:02:41.218Z,98.83
2023-01-10T13:05:19.246Z,99.57
2023-01-10T13:07:50.023Z,98.86
2023-01-10T13:10:22.004Z,99.02
2023-01-10T13:12:55.127Z,98.18
2023-01-10T13:15:28.306Z,98.47
2023-01-10T13:18:02.164Z,98.18
2023-01-10T13:20:41.566Z,98.66
2023-01-10T13:23:39.263Z,97.80
2023-01-10T13:26:11.853Z,97.46
2023-01-10T13:28:52.471Z,98.02
2023-01-10T13:31:26.753Z,97.75
2023-01-10T13:33:59.152Z,97.47
2023-01-10T13:36:36.640Z,97.70
2023-01-10T13:39:09.171Z,97.90
2023-01-10T13:42:45.222Z,97.83
2023-01-10T13:45:27.421Z,97.50
2023-01-10T13:48:00.790Z,97.66
2023-01-10T13:50:58.509Z,98.28
2023-01-10T13:53:59.375Z,97.23
2023-01-10T13:56:33.848Z,97.73
2023-01-10T13:59:22.730Z,97.72
2023-01-10T14:02:11.623Z,97.87
2023-01-10T14:04:46.754Z,98.31
2023-01-10T14:07:24.295Z,97.66
2023-01-10T14:09:55.817Z,97.92
2023-01-10T14:12:30.723Z,97.80
2023-01-10T14:15:09.422Z,97.64
2023-01-10T14:17:39.367Z,97.75
2023-01-10T14:20:18.566Z,97.98
2023-01-10T14:23:02.627Z,97.68
2023-01-10T14:25:33.511Z,97.70
2023-01-10T14:28:04.124Z,97.59
2023-01-10T14:30:35.700Z,97.62
2023-01-10T14:33:16.484Z,96.99
2023-01-10T14:35:48.099Z,96.29
2023-01-10T14:38:24.828Z,96.78
2023-01-10T14:40:56.487Z,96.87
2023-01-10T14:43:31.850Z,96.64
2023-01-10T14:46:04.775Z,96.82
2023-01-10T14:48:41.884Z,96.80
2023-01-10T14:51:24.607Z,97.04
2023-01-10T14:54:02.791Z,97.35
2023-01-10T14:56:37.861Z,97.41
2023-01-10T14:59:22.529Z,97.09
2023-01-10T15:01:55.293Z,96.32
2023-01-10T15:04:29.557Z,96.22
2023-01-10T15:07:00.798Z,97.00
2023-01-10T15:09:34.123Z,97.20
2023-01-10T15:12:06.058Z,97.83
2023-01-10T15:14:37.376Z,97.83
2023-01-10T15:17:09.400Z,98.53
2023-01-10T15:19:42.571Z,98.53
2023-01-10T15:22:28.667Z,97.86
2023-01-10T15:25:25.987Z,98.14
2023-01-10T15:27:54.863Z,97.94
2023-01-10T15:30:25.230Z,98.34
2023-01-10T15:32:56.056Z,97.76
2023-01-10T15:35:35.535Z,97.54
2023-01-10T15:38:08.886Z,98.52
2023-01-10T15:40:40.392Z,97.89
2023-01-10T15:43:13.880Z,98.09
2023-01-10T15:45:44.802Z,98.54
2023-01-10T15:48:33.851Z,98.66
2023-01-10T15:51:06.667Z,98.39
2023-01-10T15:53:57.847Z,97.57
2023-01-10T15:56:34.906Z,97.80
2023-01-10T15:59:07.098Z,97.97
2023-01-10T16:01:36.001Z,97.00
2023-01-10T16:04:07.055Z,96.98
2023-01-10T16:06:46.474Z,97.44
2023-01-10T16:09:22.487Z,96.87
2023-01-10T16:12:11.773Z,96.64
2023-01-10T16:14:40.035Z,97.71
2023-01-10T16:17:08.906Z,96.82
2023-01-10T16:19:37.453Z,96.85
2023-01-10T16:22:06.497Z,96.65
2023-01-10T16:24:37.488Z,96.51
2023-01-10T16:27:08.088Z,96.17
2023-01-10T16:29:36.318Z,95.69
2023-01-10T16:32:13.113Z,96.26
2023-01-10T16:34:41.272Z,95.78
2023-01-10T16:37:10.698Z,95.04
2023-01-10T16:39:39.239Z,95.39
2023-01-10T16:42:28.000Z,94.90
2023-01-10T16:44:56.622Z,94.16
2023-01-10T16:47:24.901Z,94.56
2023-01-10T16:49:56.431Z,94.67
2023-01-10T16:52:24.766Z,93.88
2023-01-10T16:54:53.559Z,93.61
2023-01-10T16:57:24.663Z,93.77
2023-01-10T16:59:53.511Z,94.11
2023-01-10T17:02:22.987Z,93.76
2023-01-10T17:04:51.706Z,93.89
2023-01-10T17:07:20.538Z,93.37
2023-01-10T17:09:48.942Z,93.38
2023-01-10T17:12:20.421Z,93.01
2023-01-10T17:14:50.291Z,94.03
2023-01-10T17:17:18.769Z,94.04
2023-01-10T17:19:47.732Z,93.36
2023-01-10T17:22:16.384Z,93.42
2023-01-10T17:24:44.551Z,93.35
2023-01-10T17:27:12.937Z,93.09
2023-01-10T17:29:41.374Z,93.04
2023-01-10T17:32:11.503Z,93.30
2023-01-10T17:34:54.554Z,93.19
2023-01-10T17:37:23.890Z,93.13
2023-01-10T17:39:52.757Z,93.52
2023-01-10T17:42:22.911Z,93.07
2023-01-10T17:44:51.423Z,92.99
2023-01-10T17:47:21.085Z,93.19
2023-01-10T17:49:49.587Z,92.90
2023-01-10T17:52:19.098Z,92.53
2023-01-10T17:54:49.671Z,92.00
2023-01-10T17:57:18.397Z,91.96
2023-01-10T17:59:48.924Z,91.54
2023-01-10T18:02:19.843Z,92.31
2023-01-10T18:04:49.894Z,92.16
2023-01-10T18:07:19.561Z,91.64
2023-01-10T18:09:48.342Z,91.95
2023-01-10T18:12:17.747Z,92.60
2023-01-10T18:14:48.059Z,91.73
2023-01-10T18:17:18.332Z,91.95
2023-01-10T18:19:47.223Z,91.06
2023-01-10T18:22:36.034Z,91.97
2023-01-10T18:25:05.053Z,91.63
2023-01-10T18:27:33.686Z,90.86
2023-01-10T18:30:02.167Z,91.43
2023-01-10T18:32:32.757Z,90.15
2023-01-10T18:35:01.143Z,90.94
2023-01-10T18:37:31.491Z,90.79
2023-01-10T18:40:00.355Z,90.50
2023-01-10T18:42:28.985Z,89.95
2023-01-10T18:44:58.112Z,90.31
2023-01-10T18:47:28.870Z,89.42
2023-01-10T18:50:05.309Z,89.27
2023-01-10T18:52:35.511Z,88.96
2023-01-10T18:55:04.060Z,89.25
2023-01-10T18:57:34.588Z,88.95
2023-01-10T19:00:03.411Z,89.38
2023-01-10T19:02:33.853Z,88.97
2023-01-10T19:05:04.163Z,88.70
2023-01-10T19:07:33.522Z,88.49
2023-01-10T19:10:06.456Z,88.85
2023-01-10T19:12:35.234Z,89.13
2023-01-10T19:15:03.747Z,88.74
2023-01-10T19:17:32.353Z,88.70
2023-01-10T19:20:00.869Z,89.03
2023-01-10T19:22:29.328Z,88.81
2023-01-10T19:25:01.293Z,88.65
2023-01-10T19:27:31.574Z,88.60
2023-01-10T19:30:00.129Z,88.90
2023-01-10T19:32:28.829Z,88.27
2023-01-10T19:34:57.213Z,88.04
2023-01-10T19:37:25.450Z,88.66
2023-01-10T19:39:54.144Z,88.52
2023-01-10T19:42:24.504Z,88.11
2023-01-10T19:44:58.601Z,88.19
2023-01-10T19:47:28.790Z,87.56
2023-01-10T19:50:01.282Z,87.78
2023-01-10T19:52:30.854Z,88.01
2023-01-10T19:54:59.716Z,87.84
2023-01-10T19:57:28.629Z,88.01
2023-01-10T19:59:58.511Z,87.12
2023-01-10T20:02:26.682Z,87.59
2023-01-10T20:04:58.488Z,87.78
2023-01-10T20:07:26.926Z,87.85
2023-01-10T20:09:57.463Z,87.50
2023-01-10T20:12:26.589Z,88.37
2023-01-10T20:14:55.577Z,88.20
2023-01-10T20:17:25.229Z,88.47
2023-01-10T20:19:55.779Z,87.86
2023-01-10T20:22:24.462Z,88.10
2023-01-10T20:24:53.179Z,87.60
2023-01-10T20:27:22.065Z,87.49
2023-01-10T20:29:50.620Z,87.15
2023-01-10T20:32:19.661Z,87.44
2023-01-10T20:34:51.877Z,87.23
2023-01-10T20:37:20.539Z,86.73
2023-01-10T20:39:52.862Z,87.24
2023-01-10T20:42:21.348Z,87.35
2023-01-10T20:44:49.780Z,87.08
2023-01-10T20:47:18.643Z,87.33
2023-01-10T20:49:47.481Z,87.20
2023-01-10T20:52:18.141Z,87.14
2023-01-10T20:54:51.222Z,87.12
2023-01-10T20:57:19.536Z,86.54
2023-01-10T20:59:47.950Z,86.72
2023-01-10T21:02:18.762Z,86.85
2023-01-10T21:04:48.593Z,86.10
2023-01-10T21:07:20.240Z,86.48
2023-01-10T21:09:49.069Z,86.80
2023-01-10T21:12:22.923Z,86.64
2023-01-10T21:14:52.891Z,86.42
2023-01-10T21:17:21.890Z,86.35
2023-01-10T21:19:50.112Z,86.70
2023-01-10T21:22:20.140Z,86.62
2023-01-10T21:24:48.827Z,87.18
2023-01-10T21:27:18.148Z,86.99
2023-01-10T21:29:46.850Z,87.32
2023-01-10T21:32:15.272Z,87.03
2023-01-10T21:34:43.406Z,86.95
2023-01-10T21:37:11.835Z,86.75
2023-01-10T21:39:41.941Z,87.21
2023-01-10T21:42:28.768Z,86.79
2023-01-10T21:44:59.120Z,87.21
2023-01-10T21:47:27.424Z,86.56
2023-01-10T21:49:55.736Z,86.04
2023-01-10T21:52:24.611Z,86.56
2023-01-10T21:54:59.283Z,86.84
2023-01-10T21:57:27.983Z,87.11
2023-01-10T21:59:57.828Z,86.98
2023-01-10T22:02:30.044Z,86.93
2023-01-10T22:04:58.794Z,87.15
2023-01-10T22:07:29.050Z,87.44
2023-01-10T22:10:01.133Z,87.20
2023-01-10T22:12:30.884Z,87.40
2023-01-10T22:14:59.261Z,87.81
2023-01-10T22:17:29.056Z,87.72
2023-01-10T22:20:00.644Z,87.49
2023-01-10T22:22:31.481Z,87.82
2023-01-10T22:25:02.686Z,87.65
2023-01-10T22:27:31.543Z,87.91
2023-01-10T22:29:59.813Z,87.99
2023-01-10T22:32:29.101Z,88.11
2023-01-10T22:34:57.300Z,88.28
2023-01-10T22:37:26.935Z,88.23
2023-01-10T22:39:55.380Z,88.22
2023-01-10T22:42:27.161Z,88.22
2023-01-10T22:44:55.502Z,88.49
2023-01-10T22:47:24.017Z,89.11
2023-01-10T22:49:53.345Z,88.46
2023-01-10T22:52:21.742Z,89.27
2023-01-10T22:54:50.139Z,88.92
2023-01-10T22:57:19.063Z,90.08
2023-01-10T22:59:49.175Z,89.09
2023-01-10T23:02:18.545Z,89.65
2023-01-10T23:04:48.228Z,89.15
2023-01-10T23:07:16.413Z,88.93
2023-01-10T23:09:45.328Z,88.96
2023-01-10T23:12:14.021Z,89.10
2023-01-10T23:14:42.864Z,89.27
2023-01-10T23:17:14.254Z,89.16
2023-01-10T23:19:47.049Z,89.50
2023-01-10T23:22:17.958Z,89.30
2023-01-10T23:24:46.700Z,89.69
2023-01-10T23:27:14.829Z,89.40
2023-01-10T23:29:43.359Z,89.50
2023-01-10T23:32:14.258Z,89.72
2023-01-10T23:34:42.411Z,89.17
2023-01-10T23:37:11.152Z,90.20
2023-01-10T23:39:42.162Z,89.75
2023-01-10T23:42:11.894Z,90.12
2023-01-10T23:44:40.463Z,90.12
2023-01-10T23:47:09.993Z,89.99
2023-01-10T23:49:40.908Z,90.28
2023-01-10T23:52:11.510Z,90.50
2023-01-10T23:54:42.410Z,90.15
2023-01-10T23:57:12.065Z,90.38
2023-01-10T23:59:40.633Z,90.17
